Time;durP1;ratioP1;P1;durP2;ratioP2;P2;SDS_P1;SDS_P2;PMS_P1;PMS_P2;Temp;Humidity;BMP_temperature;BMP_pressure;BME280_temperature;BME280_humidity;BME280_pressure;Samples;Min_cycle;Max_cycle;Signal;HPM_P1;HPM_P2
2023/09/19 00:00:37;;;;;;;4.97;2.50;;;;;;;15.70;100.00;97019.19;4953481;29;20498;-78
2023/09/19 00:03:05;;;;;;;5.28;2.33;;;;;;;15.70;100.00;97021.84;4953746;29;20469;-78
2023/09/19 00:05:35;;;;;;;4.65;2.30;;;;;;;15.76;100.00;97020.66;4953063;29;20420;-78
2023/09/19 00:08:04;;;;;;;4.57;2.00;;;;;;;15.68;100.00;97032.81;4953916;29;20398;-78
2023/09/19 00:10:31;;;;;;;5.00;2.28;;;;;;;15.69;100.00;97034.38;4953908;28;20677;-78
2023/09/19 00:13:04;;;;;;;2.60;2.10;;;;;;;15.69;100.00;97041.59;4953839;29;20439;-78
2023/09/19 00:15:36;;;;;;;3.13;1.90;;;;;;;15.71;100.00;97034.09;4954518;28;20827;-78
2023/09/19 00:18:05;;;;;;;2.88;2.10;;;;;;;15.74;100.00;97041.50;4957768;29;20421;-78
2023/09/19 00:20:35;;;;;;;3.00;1.85;;;;;;;15.72;100.00;97030.31;4957351;28;20409;-78
2023/09/19 00:23:08;;;;;;;4.17;2.03;;;;;;;15.70;100.00;97043.97;4957177;29;20419;-78
2023/09/19 00:25:35;;;;;;;5.57;2.55;;;;;;;15.76;100.00;97047.34;4956790;28;20441;-78
2023/09/19 00:28:01;;;;;;;3.40;1.90;;;;;;;15.79;100.00;97049.41;4957185;28;20402;-78
2023/09/19 00:30:27;;;;;;;2.40;1.67;;;;;;;15.81;100.00;97052.59;4957627;29;20409;-78
2023/09/19 00:32:54;;;;;;;4.10;1.90;;;;;;;15.84;100.00;97041.34;4957620;29;20465;-78
2023/09/19 00:35:23;;;;;;;3.67;1.85;;;;;;;15.83;100.00;97051.22;4956926;28;20421;-78
2023/09/19 00:37:51;;;;;;;3.13;1.95;;;;;;;15.82;100.00;97046.97;4956927;28;20406;-78
2023/09/19 00:40:17;;;;;;;4.45;1.90;;;;;;;15.75;100.00;97051.91;4956563;28;20484;-78
2023/09/19 00:42:44;;;;;;;3.90;2.05;;;;;;;15.76;100.00;97056.16;4957855;28;20507;-78
2023/09/19 00:45:13;;;;;;;2.97;1.95;;;;;;;15.80;100.00;97053.69;4957476;29;20410;-78
2023/09/19 00:47:40;;;;;;;2.17;1.70;;;;;;;15.79;100.00;97060.88;4957670;28;20414;-78
2023/09/19 00:50:07;;;;;;;4.35;1.88;;;;;;;15.71;100.00;97060.78;4958143;28;20398;-78
2023/09/19 00:52:36;;;;;;;2.78;1.83;;;;;;;15.76;100.00;97066.03;4957833;28;20488;-78
2023/09/19 00:55:05;;;;;;;3.58;2.15;;;;;;;15.81;100.00;97068.59;4957608;28;20440;-78
2023/09/19 00:57:32;;;;;;;3.17;1.88;;;;;;;15.75;100.00;97075.91;4957193;28;20398;-78
2023/09/19 00:59:59;;;;;;;4.68;1.80;;;;;;;15.69;100.00;97066.41;4957146;28;21033;-78
2023/09/19 01:02:29;;;;;;;2.73;1.77;;;;;;;15.74;100.00;97066.31;4957044;29;20457;-78
2023/09/19 01:04:56;;;;;;;3.72;1.80;;;;;;;15.71;100.00;97072.22;4956883;28;20414;-78
2023/09/19 01:07:22;;;;;;;2.83;1.70;;;;;;;15.76;100.00;97085.50;4957150;28;20398;-78
2023/09/19 01:09:49;;;;;;;2.58;1.80;;;;;;;15.80;100.00;97075.81;4957499;28;20433;-78
2023/09/19 01:12:31;;;;;;;3.97;1.90;;;;;;;15.62;100.00;97076.66;4957025;28;20429;-78
2023/09/19 01:15:06;;;;;;;2.70;1.70;;;;;;;15.65;100.00;97077.94;4956396;28;20433;-78
2023/09/19 01:17:44;;;;;;;3.80;1.70;;;;;;;15.67;100.00;97079.25;4957320;28;20942;-78
2023/09/19 01:20:27;;;;;;;2.55;1.60;;;;;;;15.71;100.00;97079.47;4957062;28;20452;-78
2023/09/19 01:23:03;;;;;;;1.83;1.50;;;;;;;15.73;100.00;97082.63;4957284;28;20409;-78
2023/09/19 01:25:46;;;;;;;3.53;1.77;;;;;;;15.74;100.00;97090.34;4956352;28;20402;-78
2023/09/19 01:28:29;;;;;;;2.00;1.60;;;;;;;15.76;100.00;97090.06;4956656;29;20398;-78
2023/09/19 01:30:59;;;;;;;2.45;1.30;;;;;;;15.72;100.00;97092.50;4950754;29;20418;-78
2023/09/19 01:33:26;;;;;;;3.20;1.58;;;;;;;15.74;100.00;97097.56;4956420;28;20434;-78
2023/09/19 01:35:53;;;;;;;2.75;1.63;;;;;;;15.72;100.00;97089.81;4956144;28;20905;-78
2023/09/19 01:38:19;;;;;;;3.30;1.73;;;;;;;15.71;100.00;97088.25;4961131;28;20414;-78
2023/09/19 01:41:04;;;;;;;3.45;1.90;;;;;;;15.74;100.00;97087.66;4957688;28;20406;-78
2023/09/19 01:43:36;;;;;;;3.30;1.80;;;;;;;15.76;100.00;97098.84;4956009;28;20901;-77
2023/09/19 01:46:13;;;;;;;2.65;1.75;;;;;;;15.71;100.00;97098.16;4956169;28;20444;-78
2023/09/19 01:48:46;;;;;;;2.25;1.60;;;;;;;15.70;100.00;97093.88;4955533;29;20406;-78
2023/09/19 01:51:19;;;;;;;2.65;1.60;;;;;;;15.72;100.00;97097.03;4955956;28;20424;-78
2023/09/19 01:53:55;;;;;;;2.13;1.63;;;;;;;15.67;100.00;97097.13;4966775;28;20398;-78
2023/09/19 01:56:28;;;;;;;4.13;1.80;;;;;;;15.60;100.00;97097.50;4955500;28;20418;-78
2023/09/19 01:58:59;;;;;;;2.78;1.60;;;;;;;15.63;100.00;97106.81;4957244;29;20425;-78
2023/09/19 02:01:27;;;;;;;3.00;1.67;;;;;;;15.62;100.00;97118.56;4956624;29;20397;-78
2023/09/19 02:03:56;;;;;;;3.05;1.60;;;;;;;15.61;100.00;97117.75;4955554;29;20413;-78
2023/09/19 02:06:25;;;;;;;4.65;1.90;;;;;;;15.52;100.00;97124.00;4954866;28;20409;-78
2023/09/19 02:08:51;;;;;;;2.80;1.80;;;;;;;15.45;100.00;97122.50;4954859;28;20423;-79
2023/09/19 02:11:17;;;;;;;5.20;2.23;;;;;;;15.45;100.00;97122.50;4955253;29;20406;-78
2023/09/19 02:13:44;;;;;;;2.53;1.63;;;;;;;15.45;100.00;97127.81;4955322;28;20421;-78
2023/09/19 02:16:10;;;;;;;3.03;1.67;;;;;;;15.42;100.00;97115.06;4954704;29;20892;-78
2023/09/19 02:18:39;;;;;;;2.17;1.50;;;;;;;15.42;100.00;97128.38;4956452;28;20484;-78
2023/09/19 02:21:06;;;;;;;2.10;1.58;;;;;;;15.39;100.00;97126.31;4956394;28;20410;-78
2023/09/19 02:23:33;;;;;;;2.30;1.60;;;;;;;15.34;100.00;97131.69;4955872;28;20442;-78
2023/09/19 02:26:03;;;;;;;3.53;1.70;;;;;;;15.36;100.00;97134.88;4955754;28;20428;-78
2023/09/19 02:28:30;;;;;;;2.88;1.67;;;;;;;15.35;100.00;97127.16;4956639;28;20414;-78
2023/09/19 02:30:56;;;;;;;2.25;1.70;;;;;;;15.37;100.00;97130.34;4956305;28;20402;-78
2023/09/19 02:33:22;;;;;;;2.55;1.80;;;;;;;15.18;100.00;97125.00;4955175;29;20402;-78
2023/09/19 02:35:54;;;;;;;2.88;1.70;;;;;;;15.27;100.00;97122.47;4954607;29;20433;-78
2023/09/19 02:38:24;;;;;;;2.45;1.63;;;;;;;15.25;100.00;97129.97;4954581;28;20425;-78
2023/09/19 02:40:51;;;;;;;2.55;1.70;;;;;;;15.18;100.00;97134.88;4954571;28;20480;-78
2023/09/19 02:43:18;;;;;;;4.00;1.92;;;;;;;15.16;100.00;97132.50;4957114;29;20485;-78
2023/09/19 02:45:44;;;;;;;1.70;1.60;;;;;;;15.15;100.00;97143.44;4963202;28;20877;-78
2023/09/19 02:48:11;;;;;;;1.70;1.57;;;;;;;15.16;100.00;97140.50;4963093;28;20495;-78
2023/09/19 02:50:39;;;;;;;2.75;1.50;;;;;;;15.14;100.00;97147.97;4955557;28;20897;-78
2023/09/19 02:53:07;;;;;;;1.45;1.35;;;;;;;15.13;100.00;97146.38;4955616;28;20932;-78
2023/09/19 02:55:33;;;;;;;3.08;1.80;;;;;;;15.15;100.00;97149.56;4954825;28;20791;-78
2023/09/19 02:58:01;;;;;;;3.75;1.60;;;;;;;15.07;100.00;97147.53;4955723;28;20412;-78
2023/09/19 03:00:28;;;;;;;3.10;1.80;;;;;;;15.16;100.00;97153.03;4955086;28;20508;-78
2023/09/19 03:02:55;;;;;;;2.25;1.50;;;;;;;15.17;100.00;97163.41;4954847;28;20493;-78
2023/09/19 03:05:23;;;;;;;2.42;1.58;;;;;;;15.18;100.00;97161.53;4954060;28;20417;-78
2023/09/19 03:07:53;;;;;;;2.88;1.48;;;;;;;15.20;100.00;97154.03;4947842;28;20445;-78
2023/09/19 03:10:21;;;;;;;2.45;1.70;;;;;;;15.10;100.00;97160.31;4954339;28;20402;-78
2023/09/19 03:12:48;;;;;;;3.28;1.77;;;;;;;15.21;100.00;97159.09;4954267;29;20433;-78
2023/09/19 03:15:21;;;;;;;3.30;1.70;;;;;;;15.19;100.00;97158.56;4954092;28;20904;-78
2023/09/19 03:17:49;;;;;;;1.48;1.38;;;;;;;15.32;100.00;97167.75;4954170;28;20460;-78
2023/09/19 03:20:18;;;;;;;2.20;1.50;;;;;;;15.34;100.00;97158.38;4954033;28;20408;-78
2023/09/19 03:22:45;;;;;;;1.90;1.30;;;;;;;15.36;100.00;97164.22;4953958;28;20452;-78
2023/09/19 03:25:12;;;;;;;2.78;1.52;;;;;;;15.37;100.00;97162.34;4953179;28;20465;-78
2023/09/19 03:27:40;;;;;;;1.77;1.38;;;;;;;15.40;100.00;97165.25;4952043;28;20588;-78
2023/09/19 03:30:12;;;;;;;1.90;1.40;;;;;;;15.40;100.00;97162.59;4953340;28;20413;-78
2023/09/19 03:32:44;;;;;;;1.70;1.25;;;;;;;15.42;100.00;97156.94;4954486;28;20420;-78
2023/09/19 03:35:13;;;;;;;2.45;1.30;;;;;;;15.43;100.00;97161.19;4954239;28;20433;-78
2023/09/19 03:37:40;;;;;;;2.35;1.50;;;;;;;15.42;100.00;97147.06;4953220;29;20404;-78
2023/09/19 03:40:07;;;;;;;1.52;1.30;;;;;;;15.43;100.00;97156.66;4954867;28;20428;-78
2023/09/19 03:42:36;;;;;;;1.45;1.35;;;;;;;15.42;100.00;97155.06;4955053;28;20893;-78
2023/09/19 03:45:04;;;;;;;1.42;1.30;;;;;;;15.43;100.00;97159.31;4955435;28;20474;-78
2023/09/19 03:47:30;;;;;;;3.15;1.95;;;;;;;15.44;100.00;97150.25;4954989;28;20881;-79
2023/09/19 03:49:56;;;;;;;1.83;1.20;;;;;;;15.44;100.00;97152.91;4955916;28;20457;-78
2023/09/19 03:52:22;;;;;;;2.22;1.40;;;;;;;15.45;100.00;97151.84;4960211;28;20406;-78
2023/09/19 03:54:49;;;;;;;1.55;1.20;;;;;;;15.47;100.00;97156.88;4955833;29;20512;-77
2023/09/19 03:57:20;;;;;;;2.08;1.65;;;;;;;15.45;100.00;97153.72;4956557;28;20766;-78
2023/09/19 03:59:47;;;;;;;2.28;1.60;;;;;;;15.42;100.00;97159.59;4956990;28;20410;-78
2023/09/19 04:02:22;;;;;;;2.03;1.67;;;;;;;15.41;100.00;97163.38;4958423;28;20443;-77
2023/09/19 04:04:48;;;;;;;2.40;1.75;;;;;;;15.40;100.00;97159.91;4955265;29;20463;-77
2023/09/19 04:07:14;;;;;;;2.10;1.52;;;;;;;15.36;100.00;97150.88;4960310;29;20410;-78
2023/09/19 04:09:40;;;;;;;1.55;1.45;;;;;;;15.35;100.00;97157.28;4958210;28;20453;-78
2023/09/19 04:12:11;;;;;;;2.28;1.73;;;;;;;15.33;100.00;97158.69;4958344;29;20770;-78
2023/09/19 04:14:38;;;;;;;2.85;1.50;;;;;;;15.34;100.00;97160.25;4957890;28;20432;-78
2023/09/19 04:17:05;;;;;;;2.08;1.52;;;;;;;15.34;100.00;97154.91;4957909;28;20405;-78
2023/09/19 04:19:32;;;;;;;1.70;1.52;;;;;;;15.31;100.00;97166.97;4957637;28;20870;-78
2023/09/19 04:21:58;;;;;;;1.75;1.45;;;;;;;15.29;100.00;97166.44;4957728;29;20398;-78
2023/09/19 04:24:25;;;;;;;1.92;1.70;;;;;;;15.27;100.00;97170.47;4957360;28;20406;-78
2023/09/19 04:26:52;;;;;;;1.75;1.63;;;;;;;15.26;100.00;97169.66;4959582;29;21152;-77
2023/09/19 04:29:19;;;;;;;4.15;1.63;;;;;;;15.21;100.00;97175.06;4957113;28;20901;-78
2023/09/19 04:31:45;;;;;;;1.90;1.70;;;;;;;15.22;100.00;97170.53;4957501;28;20405;-78
2023/09/19 04:34:17;;;;;;;1.60;1.50;;;;;;;15.23;100.00;97172.13;4959050;28;20468;-78
2023/09/19 04:36:45;;;;;;;1.80;1.40;;;;;;;15.24;100.00;97177.19;4956286;29;20441;-78
2023/09/19 04:39:12;;;;;;;1.88;1.50;;;;;;;15.25;100.00;97172.66;4955850;28;21035;-78
2023/09/19 04:41:41;;;;;;;3.78;1.88;;;;;;;15.22;100.00;97174.00;4956150;28;20429;-78
2023/09/19 04:44:07;;;;;;;2.20;1.80;;;;;;;15.26;100.00;97183.00;4954042;29;20398;-78
2023/09/19 04:46:34;;;;;;;2.05;1.80;;;;;;;15.26;100.00;97182.25;4955809;28;20409;-79
2023/09/19 04:49:00;;;;;;;2.30;1.80;;;;;;;15.28;100.00;97188.06;4957515;29;20409;-80
2023/09/19 04:51:29;;;;;;;3.60;1.90;;;;;;;15.25;100.00;97188.66;4958533;29;20417;-80
2023/09/19 04:53:56;;;;;;;2.90;1.90;;;;;;;15.22;100.00;97191.88;4957999;28;20410;-79
2023/09/19 04:56:23;;;;;;;3.15;1.90;;;;;;;15.18;100.00;97209.53;4956134;29;20421;-78
2023/09/19 04:58:50;;;;;;;3.80;2.13;;;;;;;15.11;100.00;97207.97;4953226;28;20405;-78
2023/09/19 05:01:16;;;;;;;3.88;2.50;;;;;;;15.04;100.00;97209.41;4953889;29;20774;-78
2023/09/19 05:03:42;;;;;;;6.57;2.40;;;;;;;14.97;100.00;97209.75;4955057;28;20425;-77
2023/09/19 05:06:08;;;;;;;9.60;2.60;;;;;;;14.95;100.00;97213.78;4952965;28;20414;-78
2023/09/19 05:08:35;;;;;;;3.88;2.63;;;;;;;14.91;100.00;97215.41;4954090;28;20921;-77
2023/09/19 05:11:03;;;;;;;5.90;2.88;;;;;;;14.90;100.00;97216.47;4952988;29;20410;-77
2023/09/19 05:13:30;;;;;;;5.83;2.90;;;;;;;14.90;100.00;97217.28;4952303;29;20530;-78
2023/09/19 05:16:02;;;;;;;4.82;2.90;;;;;;;14.89;100.00;97212.22;4950421;28;20456;-77
2023/09/19 05:21:04;;;;;;;5.23;3.10;;;;;;;14.89;100.00;97215.69;5056177;23;1787041;-79
2023/09/19 05:23:31;;;;;;;3.55;2.67;;;;;;;14.91;100.00;97223.41;4955262;28;20639;-77
2023/09/19 05:25:59;;;;;;;6.13;2.85;;;;;;;14.94;100.00;97231.66;4955945;28;20912;-80
2023/09/19 05:28:27;;;;;;;6.00;3.05;;;;;;;14.94;100.00;97228.97;4959023;28;20410;-78
2023/09/19 05:30:53;;;;;;;4.95;3.05;;;;;;;14.92;100.00;97233.00;4958350;28;20410;-78
2023/09/19 05:33:20;;;;;;;6.10;3.40;;;;;;;14.93;100.00;97229.25;4961629;28;20461;-78
2023/09/19 05:35:48;;;;;;;5.75;3.58;;;;;;;14.93;100.00;97242.59;4962256;28;20511;-78
2023/09/19 05:38:18;;;;;;;4.07;2.97;;;;;;;14.94;100.00;97239.63;4964197;28;20419;-78
2023/09/19 05:53:35;;;;;;;6.38;3.40;;;;;;;14.67;100.00;97272.13;4935534;28;20970;-83
2023/09/19 05:56:01;;;;;;;9.68;3.83;;;;;;;14.65;100.00;97271.63;4961788;28;20445;-81
2023/09/19 05:58:28;;;;;;;7.65;3.53;;;;;;;14.64;100.00;97278.03;4957473;29;20503;-79
2023/09/19 06:00:55;;;;;;;7.82;4.00;;;;;;;14.66;100.00;97291.03;4947051;29;20914;-80
2023/09/19 06:03:24;;;;;;;6.97;3.35;;;;;;;14.65;100.00;97271.63;4940766;28;20424;-82
2023/09/19 06:05:52;;;;;;;6.82;3.60;;;;;;;14.69;100.00;97285.16;4944914;29;20427;-81
2023/09/19 06:08:19;;;;;;;10.52;4.57;;;;;;;14.71;100.00;97285.69;4936373;29;20411;-81
2023/09/19 06:10:47;;;;;;;11.32;5.25;;;;;;;14.69;100.00;97293.16;4939184;28;20411;-80
2023/09/19 06:13:13;;;;;;;11.93;5.68;;;;;;;14.62;100.00;97292.69;4943078;29;20471;-81
2023/09/19 06:15:40;;;;;;;15.43;6.32;;;;;;;14.58;100.00;97302.31;4943001;29;20428;-81
2023/09/19 06:18:14;;;;;;;21.35;6.68;;;;;;;14.55;100.00;97295.66;4944625;29;20502;-82
2023/09/19 06:20:44;;;;;;;17.20;7.25;;;;;;;14.50;100.00;97294.94;4942530;28;20403;-82
2023/09/19 06:23:10;;;;;;;18.00;7.07;;;;;;;14.46;100.00;97294.66;4946246;28;20413;-83
2023/09/19 06:25:36;;;;;;;18.38;7.63;;;;;;;14.45;100.00;97298.41;4940102;28;20434;-81
2023/09/19 06:28:05;;;;;;;15.60;7.13;;;;;;;14.45;100.00;97290.41;4938732;29;20410;-81
2023/09/19 06:30:32;;;;;;;22.10;8.13;;;;;;;14.45;100.00;97285.09;4936744;28;20415;-81
2023/09/19 06:32:59;;;;;;;25.20;8.82;;;;;;;14.47;100.00;97290.13;4942655;29;20490;-80
2023/09/19 06:35:26;;;;;;;19.97;8.03;;;;;;;14.43;100.00;97289.13;4952169;28;20519;-80
2023/09/19 06:37:52;;;;;;;17.27;7.80;;;;;;;14.45;100.00;97294.94;4940313;29;20996;-80
2023/09/19 06:40:19;;;;;;;14.80;6.97;;;;;;;14.48;100.00;97299.72;4942934;28;20466;-79
2023/09/19 06:42:47;;;;;;;16.10;7.05;;;;;;;14.53;100.00;97299.69;4941164;29;20403;-82
2023/09/19 06:45:18;;;;;;;17.83;8.20;;;;;;;14.54;100.00;97303.94;4942631;29;20408;-82
2023/09/19 06:47:45;;;;;;;19.38;8.25;;;;;;;14.57;100.00;97312.19;4939029;29;20419;-81
2023/09/19 06:50:15;;;;;;;19.95;7.80;;;;;;;14.59;100.00;97304.69;4948019;29;20430;-80
2023/09/19 06:52:41;;;;;;;14.65;6.65;;;;;;;14.67;100.00;97309.41;4938589;29;20506;-83
2023/09/19 06:55:09;;;;;;;13.32;6.45;;;;;;;14.78;100.00;97299.50;4957872;28;20476;-81
2023/09/19 06:57:36;;;;;;;19.73;7.68;;;;;;;14.83;100.00;97302.09;4942768;29;20415;-80
2023/09/19 07:00:02;;;;;;;12.90;6.65;;;;;;;14.91;100.00;97308.69;4940356;29;20993;-81
2023/09/19 07:02:30;;;;;;;12.70;6.30;;;;;;;14.98;100.00;97309.97;4941308;29;20403;-81
2023/09/19 07:04:56;;;;;;;14.50;6.13;;;;;;;15.04;100.00;97322.16;4939427;28;20467;-82
2023/09/19 07:07:22;;;;;;;10.63;5.23;;;;;;;15.15;100.00;97327.41;4937640;29;20501;-81
2023/09/19 07:09:48;;;;;;;13.77;5.97;;;;;;;15.18;100.00;97326.84;4939767;29;20403;-81
2023/09/19 07:12:15;;;;;;;12.48;5.72;;;;;;;15.21;100.00;97327.06;4947863;29;20886;-80
2023/09/19 07:14:41;;;;;;;14.57;6.27;;;;;;;15.17;100.00;97338.59;4945347;29;20772;-81
2023/09/19 07:17:07;;;;;;;14.98;5.95;;;;;;;15.15;100.00;97338.06;4953559;29;20463;-80
2023/09/19 07:19:35;;;;;;;14.27;5.78;;;;;;;15.11;100.00;97337.81;4937716;29;20497;-81
2023/09/19 07:22:02;;;;;;;20.83;6.22;;;;;;;15.10;100.00;97346.91;4937540;29;20400;-80
2023/09/19 07:24:28;;;;;;;10.10;5.38;;;;;;;15.07;100.00;97345.59;4939373;28;20425;-81
2023/09/19 07:26:55;;;;;;;12.63;5.22;;;;;;;15.07;100.00;97345.59;4946034;29;20468;-81
2023/09/19 07:29:21;;;;;;;10.32;4.55;;;;;;;15.14;100.00;97345.28;4939118;29;20404;-81
2023/09/19 07:31:48;;;;;;;11.30;5.40;;;;;;;15.16;100.00;97350.34;4941075;28;20829;-80
2023/09/19 07:34:14;;;;;;;8.57;4.57;;;;;;;15.21;100.00;97351.06;4937809;28;20411;-80
2023/09/19 07:36:42;;;;;;;7.30;3.85;;;;;;;15.31;100.00;97348.31;4938963;29;20427;-79
2023/09/19 07:39:08;;;;;;;16.10;5.05;;;;;;;15.34;100.00;97353.06;4936550;28;20854;-80
2023/09/19 07:41:34;;;;;;;9.30;3.85;;;;;;;15.38;100.00;97358.66;4943710;29;20414;-79
2023/09/19 07:44:00;;;;;;;8.83;3.80;;;;;;;15.42;100.00;97365.78;4936956;29;20410;-81
2023/09/19 07:46:27;;;;;;;7.07;3.50;;;;;;;15.53;100.00;97361.19;4941758;29;20410;-80
2023/09/19 07:48:53;;;;;;;7.13;3.35;;;;;;;15.60;100.00;97364.31;4939923;29;20434;-80
2023/09/19 07:51:20;;;;;;;5.38;3.00;;;;;;;15.67;100.00;97364.75;4937754;29;20407;-80
2023/09/19 07:53:48;;;;;;;6.00;3.00;;;;;;;15.73;100.00;97366.28;4946575;28;20408;-80
2023/09/19 07:56:14;;;;;;;4.82;2.63;;;;;;;15.79;100.00;97359.81;4940658;29;20428;-80
2023/09/19 07:58:43;;;;;;;11.00;3.72;;;;;;;15.75;100.00;97360.69;4941681;29;20419;-80
2023/09/19 08:01:10;;;;;;;7.82;3.35;;;;;;;15.82;100.00;97366.47;4944380;29;20408;-80
2023/09/19 08:03:43;;;;;;;7.00;2.75;;;;;;;15.92;100.00;97371.69;4946167;29;20401;-81
2023/09/19 08:06:10;;;;;;;4.47;2.90;;;;;;;15.99;100.00;97369.47;4949439;29;20425;-81
2023/09/19 08:08:37;;;;;;;3.63;2.20;;;;;;;16.17;100.00;97373.25;4949955;29;20724;-82
2023/09/19 08:11:12;;;;;;;3.10;2.00;;;;;;;16.33;100.00;97382.66;4938860;29;20419;-81
2023/09/19 08:13:48;;;;;;;2.88;1.70;;;;;;;16.43;100.00;97384.41;4938286;29;20419;-81
2023/09/19 08:16:15;;;;;;;3.13;2.03;;;;;;;16.56;100.00;97389.00;4929741;29;20431;-81
2023/09/19 08:18:41;;;;;;;5.78;2.00;;;;;;;16.61;100.00;97392.44;4939258;29;20408;-80
2023/09/19 08:21:11;;;;;;;10.07;2.90;;;;;;;16.52;100.00;97391.47;4937942;29;20451;-81
2023/09/19 08:23:38;;;;;;;3.03;1.92;;;;;;;16.68;100.00;97400.09;4937854;29;20884;-81
2023/09/19 08:26:09;;;;;;;3.88;1.70;;;;;;;16.77;100.00;97403.69;4938154;29;20423;-81
2023/09/19 08:28:35;;;;;;;5.60;2.10;;;;;;;16.75;100.00;97400.53;4938863;29;20400;-81
2023/09/19 08:31:05;;;;;;;4.97;2.10;;;;;;;16.73;100.00;97400.03;4936784;29;20406;-80
2023/09/19 08:33:33;;;;;;;5.90;1.90;;;;;;;16.92;100.00;97398.13;4936318;29;20718;-81
2023/09/19 08:35:59;;;;;;;2.03;1.67;;;;;;;17.03;100.00;97404.91;4938342;28;20427;-82
2023/09/19 08:38:29;;;;;;;2.83;1.65;;;;;;;17.05;100.00;97398.47;4941844;29;20490;-81
2023/09/19 08:40:59;;;;;;;1.95;1.73;;;;;;;17.01;100.00;97403.59;4937274;29;20411;-80
2023/09/19 08:43:27;;;;;;;4.30;1.60;;;;;;;16.93;100.00;97401.59;4938515;29;20462;-80
2023/09/19 08:46:06;;;;;;;2.10;1.77;;;;;;;16.96;100.00;97401.00;4936740;29;20427;-81
2023/09/19 08:48:34;;;;;;;1.92;1.55;;;;;;;16.94;100.00;97412.00;4937878;29;20414;-81
2023/09/19 08:51:03;;;;;;;2.23;1.43;;;;;;;16.90;100.00;97411.00;4940996;29;20482;-81
2023/09/19 08:53:41;;;;;;;2.03;1.50;;;;;;;16.98;100.00;97404.19;4939543;29;20918;-82
2023/09/19 08:56:10;;;;;;;3.42;1.98;;;;;;;16.89;100.00;97404.06;4939157;29;20427;-82
2023/09/19 08:58:44;;;;;;;2.85;1.50;;;;;;;17.10;100.00;97411.75;4939874;29;20442;-82
2023/09/19 09:01:14;;;;;;;1.80;1.30;;;;;;;17.25;100.00;97408.84;4940275;29;20437;-82
2023/09/19 09:03:43;;;;;;;3.30;1.77;;;;;;;17.29;100.00;97407.94;4942365;29;20908;-79
2023/09/19 09:06:11;;;;;;;3.10;1.70;;;;;;;17.31;100.00;97407.66;4942241;28;20415;-79
2023/09/19 09:08:39;;;;;;;2.15;1.65;;;;;;;17.47;100.00;97410.88;4940138;29;20460;-80
2023/09/19 09:11:07;;;;;;;1.90;1.50;;;;;;;17.61;100.00;97404.47;4938864;29;20410;-82
2023/09/19 09:13:35;;;;;;;2.13;1.50;;;;;;;17.72;100.00;97408.56;4939763;29;20416;-80
2023/09/19 09:16:03;;;;;;;2.33;1.30;;;;;;;17.88;100.00;97414.44;4939693;29;20779;-82
2023/09/19 09:18:30;;;;;;;3.88;2.03;;;;;;;17.89;100.00;97416.03;4930459;29;20419;-82
2023/09/19 09:20:56;;;;;;;2.78;1.98;;;;;;;17.63;100.00;97421.06;4937044;29;20415;-81
2023/09/19 09:23:22;;;;;;;6.07;1.90;;;;;;;17.52;100.00;97430.31;4940304;29;20428;-83
2023/09/19 09:25:54;;;;;;;7.70;2.10;;;;;;;17.72;100.00;97418.50;4936438;29;20441;-81
2023/09/19 09:28:22;;;;;;;4.20;2.10;;;;;;;17.63;100.00;97421.06;4934015;29;20784;-79
2023/09/19 09:30:50;;;;;;;3.17;1.70;;;;;;;18.00;100.00;97412.06;4938029;29;20975;-80
2023/09/19 09:33:18;;;;;;;3.58;1.77;;;;;;;18.09;100.00;97415.63;4938160;28;20466;-80
2023/09/19 09:35:52;;;;;;;2.37;1.47;;;;;;;18.11;100.00;97416.13;4938194;29;21201;-80
2023/09/19 09:38:19;;;;;;;4.07;1.80;;;;;;;18.28;100.00;97412.03;4935188;29;20427;-81
2023/09/19 09:41:01;;;;;;;2.88;1.90;;;;;;;18.14;100.00;97418.19;4938637;29;20399;-81
2023/09/19 09:43:35;;;;;;;6.53;1.90;;;;;;;18.01;100.00;97427.03;4938553;28;20453;-81
2023/09/19 09:46:55;;;;;;;2.57;1.57;;;;;;;18.12;100.00;97419.56;4938554;29;20407;-81
2023/09/19 09:51:57;;;;;;;3.38;1.63;;;;;;;18.44;100.00;97430.16;4936526;29;20407;-79
2023/09/19 09:54:27;;;;;;;5.72;2.15;;;;;;;18.21;100.00;97419.69;4931083;29;20584;-81
2023/09/19 09:56:54;;;;;;;3.92;1.60;;;;;;;18.47;100.00;97426.09;4951234;29;20431;-80
2023/09/19 09:59:23;;;;;;;3.08;1.80;;;;;;;18.50;100.00;97417.44;4939215;29;20421;-80
2023/09/19 10:01:50;;;;;;;4.32;1.90;;;;;;;18.69;100.00;97414.66;4936384;28;20403;-82
2023/09/19 10:04:29;;;;;;;3.17;1.90;;;;;;;18.84;100.00;97419.69;4938172;29;20436;-81
2023/09/19 10:06:57;;;;;;;2.80;1.83;;;;;;;18.85;100.00;97418.59;4939436;29;20415;-81
2023/09/19 10:09:27;;;;;;;2.30;1.70;;;;;;;18.84;100.00;97425.84;4944477;29;20462;-80
2023/09/19 10:12:03;;;;;;;2.40;1.88;;;;;;;18.74;100.00;97430.63;4939012;29;20412;-79
2023/09/19 10:14:34;;;;;;;5.85;2.13;;;;;;;18.49;100.00;97418.56;4937800;29;20416;-80
2023/09/19 10:17:04;;;;;;;5.00;1.95;;;;;;;18.39;100.00;97419.56;4933939;29;20441;-81
2023/09/19 10:19:46;;;;;;;3.03;1.65;;;;;;;18.47;100.00;97423.44;4938166;29;20907;-79
2023/09/19 10:22:20;;;;;;;2.20;1.75;;;;;;;18.55;100.00;97426.19;4938456;29;20471;-80
2023/09/19 10:24:51;;;;;;;2.70;1.87;;;;;;;18.53;100.00;97433.75;4938191;28;20499;-80
2023/09/19 10:27:19;;;;;;;4.00;2.30;;;;;;;18.51;100.00;97413.69;4937804;29;20399;-82
2023/09/19 10:29:49;;;;;;;4.40;2.10;;;;;;;18.54;100.00;97411.19;4935511;29;20772;-80
2023/09/19 10:32:19;;;;;;;3.35;1.70;;;;;;;19.01;100.00;97427.09;4937149;29;20880;-80
2023/09/19 10:34:47;;;;;;;4.55;1.92;;;;;;;19.15;100.00;97417.09;4936732;29;20423;-84
2023/09/19 10:37:17;;;;;;;3.45;1.67;;;;;;;18.85;100.00;97407.88;4938351;28;20419;-81
2023/09/19 10:39:47;;;;;;;3.00;1.80;;;;;;;18.61;100.00;97400.09;4937724;29;20805;-81
2023/09/19 10:42:19;;;;;;;3.70;1.50;;;;;;;18.28;100.00;97404.78;4936485;29;20439;-80
2023/09/19 10:44:49;;;;;;;4.78;1.77;;;;;;;18.36;100.00;97427.41;4935485;29;20507;-81
2023/09/19 10:47:15;;;;;;;4.20;1.90;;;;;;;18.53;100.00;97420.34;4936875;29;20404;-80
2023/09/19 10:49:46;;;;;;;2.90;1.67;;;;;;;18.67;100.00;97414.16;4937785;28;20464;-81
2023/09/19 10:52:18;;;;;;;4.40;1.87;;;;;;;18.86;100.00;97418.31;4940026;29;20841;-81
2023/09/19 10:54:51;;;;;;;3.00;1.60;;;;;;;18.93;100.00;97433.97;4937059;29;20450;-80
2023/09/19 10:57:21;;;;;;;2.08;1.70;;;;;;;19.04;100.00;97400.44;4937248;29;20476;-84
2023/09/19 11:00:07;;;;;;;2.53;1.23;;;;;;;18.83;100.00;97400.13;4958412;28;20454;-82
2023/09/19 11:02:33;;;;;;;2.45;1.70;;;;;;;18.68;100.00;97416.56;4935994;29;20592;-82
2023/09/19 11:05:13;;;;;;;6.35;2.50;;;;;;;18.47;100.00;97405.47;4937600;29;20452;-81
2023/09/19 11:07:57;;;;;;;5.72;1.80;;;;;;;18.22;100.00;97402.50;4937513;29;20854;-82
2023/09/19 11:10:46;;;;;;;3.60;1.60;;;;;;;18.43;100.00;97419.75;4939005;29;20407;-82
2023/09/19 11:13:26;;;;;;;2.95;1.63;;;;;;;18.69;100.00;97425.41;4936251;29;20415;-81
2023/09/19 11:16:19;;;;;;;2.85;1.45;;;;;;;18.80;100.00;97398.03;4936853;29;20431;-81
2023/09/19 11:18:53;;;;;;;2.17;1.40;;;;;;;19.07;100.00;97413.25;4930653;29;20404;-81
2023/09/19 11:21:51;;;;;;;3.92;1.65;;;;;;;19.26;100.00;97394.25;4936678;29;20439;-79
2023/09/19 11:24:36;;;;;;;2.38;1.50;;;;;;;19.49;100.00;97376.25;4935667;29;20419;-78
2023/09/19 11:27:18;;;;;;;2.10;1.40;;;;;;;19.85;100.00;97395.69;4936532;29;20415;-82
2023/09/19 11:29:45;;;;;;;3.92;1.40;;;;;;;20.05;100.00;97367.47;4952609;28;20428;-81
2023/09/19 11:32:11;;;;;;;2.40;1.30;;;;;;;20.37;100.00;97377.06;4935581;29;20407;-81
2023/09/19 11:34:45;;;;;;;2.17;1.30;;;;;;;20.52;100.00;97355.09;4937652;29;20423;-81
2023/09/19 11:38:00;;;;;;;2.38;1.50;;;;;;;20.58;100.00;97350.34;4936665;29;20431;-80
2023/09/19 11:40:28;;;;;;;2.33;1.20;;;;;;;20.94;100.00;97350.81;4938242;29;20399;-80
2023/09/19 11:42:55;;;;;;;2.70;1.20;;;;;;;21.11;100.00;97358.84;4946216;29;20490;-81
2023/09/19 11:46:01;;;;;;;2.33;1.33;;;;;;;21.43;100.00;97343.25;4941056;29;20418;-80
2023/09/19 11:48:29;;;;;;;1.95;1.10;;;;;;;21.44;100.00;97339.47;4931671;29;20400;-80
2023/09/19 11:50:57;;;;;;;2.30;1.17;;;;;;;21.78;100.00;97335.84;4937181;28;20414;-79
2023/09/19 11:53:24;;;;;;;2.63;1.10;;;;;;;21.83;100.00;97333.75;4944782;29;20407;-80